createdAt,value
2023-05-19T06:51:57.313Z,58.66
2023-05-19T06:54:25.696Z,58.67
2023-05-19T06:56:54.912Z,58.65
2023-05-19T06:59:23.570Z,58.64
2023-05-19T07:01:51.756Z,58.61
2023-05-19T07:04:19.758Z,58.48
2023-05-19T07:06:48.213Z,58.32
2023-05-19T07:09:16.575Z,58.33
2023-05-19T07:11:45.248Z,58.26
2023-05-19T07:14:12.832Z,58.20
2023-05-19T07:16:41.797Z,58.08
2023-05-19T07:19:09.869Z,58.01
2023-05-19T07:21:37.463Z,57.97
2023-05-19T07:24:05.913Z,57.94
2023-05-19T07:26:38.673Z,57.73
2023-05-19T07:29:07.119Z,57.54
2023-05-19T07:31:34.859Z,57.44
2023-05-19T07:34:03.778Z,57.47
2023-05-19T07:36:31.715Z,57.29
2023-05-19T07:39:01.619Z,57.22
2023-05-19T07:41:34.378Z,57.16
2023-05-19T07:44:16.681Z,57.06
2023-05-19T07:46:44.740Z,56.97
2023-05-19T07:49:16.992Z,56.91
2023-05-19T07:51:45.690Z,56.98
2023-05-19T07:54:13.448Z,56.81
2023-05-19T07:56:41.716Z,57.00
2023-05-19T07:59:09.601Z,56.98
2023-05-19T08:01:37.525Z,56.98
2023-05-19T08:04:05.507Z,56.98
2023-05-19T08:06:33.429Z,56.81
2023-05-19T08:09:01.277Z,56.82
2023-05-19T08:11:28.856Z,56.71
2023-05-19T08:13:56.710Z,56.71
2023-05-19T08:16:25.239Z,56.80
2023-05-19T08:18:52.857Z,56.83
2023-05-19T08:21:20.755Z,56.79
2023-05-19T08:23:48.548Z,56.83
2023-05-19T08:26:20.699Z,56.87
2023-05-19T08:28:51.361Z,56.79
2023-05-19T08:31:19.420Z,56.85
2023-05-19T08:33:47.345Z,56.98
2023-05-19T08:36:15.087Z,56.94
2023-05-19T08:38:42.766Z,57.03
2023-05-19T08:41:11.118Z,56.98
2023-05-19T08:43:40.076Z,56.90
2023-05-19T08:46:08.693Z,56.97
2023-05-19T08:48:36.547Z,56.94
2023-05-19T08:51:42.010Z,57.06
2023-05-19T08:54:18.259Z,56.91
2023-05-19T08:56:46.090Z,56.96
2023-05-19T08:59:14.811Z,56.99
2023-05-19T09:01:46.257Z,56.98
2023-05-19T09:04:14.384Z,56.97
2023-05-19T09:11:06.012Z,56.90
2023-05-19T09:13:33.610Z,57.02
2023-05-19T09:16:02.479Z,56.95
2023-05-19T09:18:33.238Z,57.00
2023-05-19T09:21:03.036Z,56.95
2023-05-19T09:23:33.693Z,56.93
2023-05-19T09:26:08.144Z,56.96
2023-05-19T09:28:36.772Z,56.89
2023-05-19T09:31:06.685Z,56.90
2023-05-19T09:33:38.972Z,56.84
2023-05-19T09:36:08.962Z,56.92
2023-05-19T09:38:37.266Z,56.85
2023-05-19T09:41:05.822Z,56.81
2023-05-19T09:43:34.792Z,56.87
2023-05-19T09:46:13.725Z,56.96
2023-05-19T09:48:42.729Z,56.98
2023-05-19T09:51:13.108Z,56.91
2023-05-19T09:53:40.584Z,56.83
2023-05-19T09:56:09.191Z,56.81
2023-05-19T09:58:39.430Z,56.87
2023-05-19T10:01:07.277Z,56.88
2023-05-19T10:03:35.301Z,56.93
2023-05-19T10:06:07.691Z,56.85
2023-05-19T10:08:36.456Z,56.76
2023-05-19T10:11:05.985Z,56.78
2023-05-19T10:13:33.627Z,56.83
2023-05-19T10:16:01.624Z,56.84
2023-05-19T10:18:30.033Z,56.87
2023-05-19T10:20:58.448Z,56.98
2023-05-19T10:23:26.921Z,57.02
2023-05-19T10:25:57.266Z,57.10
2023-05-19T10:28:28.571Z,57.20
2023-05-19T10:31:00.201Z,57.18
2023-05-19T10:33:59.449Z,57.34
2023-05-19T10:36:42.957Z,57.41
2023-05-19T10:39:26.634Z,57.49
2023-05-19T10:42:01.211Z,57.39
2023-05-19T10:44:57.373Z,57.24
2023-05-19T10:47:26.917Z,57.26
2023-05-19T10:49:55.108Z,57.30
2023-05-19T10:52:26.416Z,57.41
2023-05-19T10:54:55.474Z,57.57
2023-05-19T10:57:32.464Z,57.83
2023-05-19T11:00:10.569Z,58.18
2023-05-19T11:02:38.295Z,58.68
2023-05-19T11:05:15.248Z,58.88
2023-05-19T11:07:44.627Z,59.04
2023-05-19T11:10:12.809Z,59.07
2023-05-19T11:12:45.836Z,59.10
2023-05-19T11:15:16.869Z,59.07
2023-05-19T11:17:49.022Z,58.89
2023-05-19T11:20:27.363Z,58.72
2023-05-19T11:23:07.511Z,58.60
2023-05-19T11:25:48.702Z,58.34
2023-05-19T11:28:20.126Z,58.18
2023-05-19T11:30:52.597Z,58.09
2023-05-19T11:33:21.321Z,58.09
2023-05-19T11:35:52.183Z,57.93
2023-05-19T11:38:20.098Z,57.82
2023-05-19T11:40:50.091Z,57.75
2023-05-19T11:43:17.677Z,57.85
2023-05-19T11:45:46.136Z,57.70
2023-05-19T11:48:19.039Z,57.55
2023-05-19T11:50:48.944Z,57.62
2023-05-19T11:53:20.175Z,57.57
2023-05-19T11:55:48.790Z,57.44
2023-05-19T11:58:17.828Z,57.62
2023-05-19T12:00:46.753Z,57.68
2023-05-19T12:03:14.504Z,57.53
2023-05-19T12:05:46.893Z,57.50
2023-05-19T12:08:15.403Z,57.53
2023-05-19T12:10:43.404Z,57.52
2023-05-19T12:13:11.309Z,57.58
2023-05-19T12:15:39.750Z,57.54
2023-05-19T12:18:09.268Z,57.96
2023-05-19T12:20:37.533Z,58.25
2023-05-19T12:23:05.441Z,58.41
2023-05-19T12:25:33.659Z,58.62
2023-05-19T12:28:03.805Z,58.79
2023-05-19T12:30:36.044Z,58.79
2023-05-19T12:33:04.402Z,58.95
2023-05-19T12:35:38.282Z,58.77
2023-05-19T12:38:14.936Z,58.76
2023-05-19T12:40:53.594Z,58.69
2023-05-19T12:43:22.994Z,58.68
2023-05-19T12:45:51.259Z,58.78
2023-05-19T12:48:24.527Z,58.73
2023-05-19T12:50:54.301Z,58.79
2023-05-19T12:53:22.144Z,59.01
2023-05-19T12:55:53.113Z,59.06
2023-05-19T12:58:23.796Z,59.04
2023-05-19T13:00:52.275Z,58.94
2023-05-19T13:03:21.636Z,58.76
2023-05-19T13:05:51.271Z,58.75
2023-05-19T13:08:20.810Z,58.62
2023-05-19T13:10:49.535Z,58.58
2023-05-19T13:13:17.264Z,58.51
2023-05-19T13:15:46.088Z,58.43
2023-05-19T13:18:14.098Z,58.43
2023-05-19T13:20:42.564Z,58.48
2023-05-19T13:23:11.499Z,58.35
2023-05-19T13:25:39.440Z,58.34
2023-05-19T13:28:07.046Z,58.38
2023-05-19T13:30:36.062Z,58.32
2023-05-19T13:33:04.205Z,58.16
2023-05-19T13:35:38.213Z,58.17
2023-05-19T13:38:11.969Z,58.17
2023-05-19T13:40:40.356Z,58.23
2023-05-19T13:43:09.372Z,58.27
2023-05-19T13:45:37.735Z,58.18
2023-05-19T13:48:09.647Z,58.22
2023-05-19T13:50:37.312Z,58.26
2023-05-19T13:53:08.358Z,58.27
2023-05-19T13:55:35.999Z,58.12
2023-05-19T13:58:04.291Z,58.19
2023-05-19T14:00:32.877Z,58.14
2023-05-19T14:03:01.196Z,58.13
2023-05-19T14:05:29.300Z,58.14
2023-05-19T14:07:58.419Z,58.13
2023-05-19T14:10:26.513Z,58.05
2023-05-19T14:13:25.976Z,58.03
2023-05-19T14:15:42.318Z,58.05
2023-05-19T14:18:11.701Z,58.03
2023-05-19T14:20:39.406Z,58.07
2023-05-19T14:23:07.015Z,57.97
2023-05-19T14:25:35.038Z,58.06
2023-05-19T14:28:02.522Z,58.00
2023-05-19T14:30:30.438Z,58.05
2023-05-19T14:32:58.330Z,57.99
2023-05-19T14:35:26.350Z,58.07
2023-05-19T14:37:54.079Z,58.15
2023-05-19T14:40:21.558Z,58.01
2023-05-19T14:42:49.952Z,58.06
2023-05-19T14:45:17.674Z,58.10
2023-05-19T14:47:45.860Z,57.98
2023-05-19T14:50:14.797Z,58.01
2023-05-19T14:52:42.703Z,58.04
2023-05-19T14:55:13.298Z,57.93
2023-05-19T14:57:40.783Z,57.93
2023-05-19T15:00:11.993Z,57.93
2023-05-19T15:02:39.491Z,58.04
2023-05-19T15:05:08.401Z,57.84
2023-05-19T15:07:36.395Z,57.82
2023-05-19T15:10:04.691Z,57.90
2023-05-19T15:12:32.145Z,57.83
2023-05-19T15:14:59.964Z,57.83
2023-05-19T15:17:27.814Z,57.84
2023-05-19T15:19:55.652Z,57.79
2023-05-19T15:22:23.132Z,57.75
2023-05-19T15:24:50.803Z,57.76
2023-05-19T15:27:18.304Z,57.74
2023-05-19T15:29:45.770Z,57.71
2023-05-19T15:32:13.421Z,57.73
2023-05-19T15:34:41.058Z,57.73
2023-05-19T15:37:08.531Z,57.69
2023-05-19T15:39:36.380Z,57.71
2023-05-19T15:42:03.859Z,57.66
2023-05-19T15:44:31.485Z,57.66
2023-05-19T15:46:59.003Z,57.69
2023-05-19T15:49:26.474Z,57.73
2023-05-19T15:51:54.136Z,57.64
2023-05-19T15:54:21.583Z,57.69
2023-05-19T15:56:49.235Z,57.72
2023-05-19T15:59:16.812Z,57.73
2023-05-19T16:01:44.290Z,57.75
2023-05-19T16:04:11.927Z,57.69
2023-05-19T16:06:39.696Z,57.68
2023-05-19T16:09:07.145Z,57.67
2023-05-19T16:11:34.678Z,57.69
2023-05-19T16:14:02.188Z,57.69
2023-05-19T16:16:29.735Z,57.66
2023-05-19T16:18:57.306Z,57.62
2023-05-19T16:21:24.948Z,57.60
2023-05-19T16:23:52.475Z,57.59
2023-05-19T16:26:20.003Z,57.63
2023-05-19T16:28:47.392Z,57.62
2023-05-19T16:31:14.915Z,57.70
2023-05-19T16:33:42.819Z,57.63
2023-05-19T16:36:10.362Z,57.54
2023-05-19T16:38:37.819Z,57.65
2023-05-19T16:41:07.628Z,57.62
2023-05-19T16:43:36.200Z,57.63
2023-05-19T16:46:04.943Z,57.57
2023-05-19T16:48:32.445Z,57.65
2023-05-19T16:51:00.187Z,57.68
2023-05-19T16:53:27.988Z,57.57
2023-05-19T16:55:55.450Z,57.58
2023-05-19T16:58:22.944Z,57.58
2023-05-19T17:00:53.509Z,57.66
2023-05-19T17:03:21.513Z,57.61
2023-05-19T17:05:49.139Z,57.56
2023-05-19T17:08:16.949Z,57.48
2023-05-19T17:10:45.238Z,57.58
2023-05-19T17:13:13.261Z,57.54
2023-05-19T17:15:42.857Z,57.51
2023-05-19T17:18:12.845Z,57.62
2023-05-19T17:20:40.522Z,57.39
2023-05-19T17:23:08.557Z,57.41
2023-05-19T17:25:36.251Z,57.39
2023-05-19T17:28:04.090Z,57.43
2023-05-19T17:30:31.881Z,57.37
2023-05-19T17:32:59.799Z,57.39
2023-05-19T17:35:28.525Z,57.38
2023-05-19T17:37:56.278Z,57.39
2023-05-19T17:40:23.836Z,57.39
2023-05-19T17:42:51.555Z,57.33
2023-05-19T17:45:19.343Z,57.44
2023-05-19T17:47:47.186Z,57.45
2023-05-19T17:50:15.781Z,57.41
2023-05-19T17:52:43.489Z,57.38
2023-05-19T17:55:12.249Z,57.34
2023-05-19T17:57:40.654Z,57.37
2023-05-19T18:00:09.577Z,57.32
2023-05-19T18:02:37.592Z,57.39
2023-05-19T18:05:05.849Z,57.35
2023-05-19T18:07:33.451Z,57.36
2023-05-19T18:10:01.988Z,57.33
2023-05-19T18:12:29.570Z,57.39
2023-05-19T18:14:57.187Z,57.44
2023-05-19T18:17:24.913Z,57.27
2023-05-19T18:19:52.546Z,57.34
2023-05-19T18:22:20.286Z,57.36
2023-05-19T18:24:49.353Z,57.36
2023-05-19T18:27:16.780Z,57.38
2023-05-19T18:29:44.375Z,57.38
2023-05-19T18:32:14.802Z,57.35
2023-05-19T18:34:42.415Z,57.38
2023-05-19T18:37:09.871Z,57.36
2023-05-19T18:39:37.726Z,57.39
2023-05-19T18:42:05.364Z,57.29
2023-05-19T18:44:34.189Z,57.42
2023-05-19T18:47:01.711Z,57.37
2023-05-19T18:49:29.130Z,57.34
2023-05-19T18:51:56.555Z,57.42
2023-05-19T18:54:24.234Z,57.45
2023-05-19T18:56:51.693Z,57.30
2023-05-19T18:59:19.277Z,57.40
2023-05-19T19:01:47.138Z,57.39
2023-05-19T19:04:16.906Z,57.28
2023-05-19T19:06:44.548Z,57.31
2023-05-19T19:09:12.546Z,57.37
2023-05-19T19:11:40.095Z,57.31
2023-05-19T19:14:07.835Z,57.36
2023-05-19T19:16:35.403Z,57.34
2023-05-19T19:19:02.958Z,57.35
2023-05-19T19:21:30.481Z,57.27
2023-05-19T19:23:58.370Z,57.34
2023-05-19T19:26:27.363Z,57.34
2023-05-19T19:28:56.125Z,57.29
2023-05-19T19:31:23.840Z,57.25
2023-05-19T19:33:51.294Z,57.29
2023-05-19T19:36:18.775Z,57.29
2023-05-19T19:38:46.291Z,57.29
2023-05-19T19:41:13.822Z,57.27
2023-05-19T19:43:41.219Z,57.34
2023-05-19T19:46:09.519Z,57.28
2023-05-19T19:48:37.234Z,57.31
2023-05-19T19:51:04.772Z,57.30
2023-05-19T19:53:32.218Z,57.23
2023-05-19T19:56:00.359Z,57.28
2023-05-19T19:58:28.907Z,57.34
2023-05-19T20:01:00.500Z,57.28
2023-05-19T20:03:28.164Z,57.31
2023-05-19T20:05:56.864Z,57.22
2023-05-19T20:08:24.898Z,57.26
2023-05-19T20:10:52.433Z,57.27
2023-05-19T20:13:20.294Z,57.27
2023-05-19T20:15:47.877Z,57.30
2023-05-19T20:18:15.583Z,57.23
2023-05-19T20:20:43.465Z,57.36
2023-05-19T20:23:10.896Z,57.28
2023-05-19T20:25:53.680Z,57.29
2023-05-19T20:28:26.537Z,57.29
2023-05-19T20:30:54.015Z,57.29
2023-05-19T20:33:21.579Z,57.26
2023-05-19T20:35:48.996Z,57.26
2023-05-19T20:38:16.457Z,57.30
2023-05-19T20:40:43.992Z,57.20
2023-05-19T20:43:11.465Z,57.32
2023-05-19T20:45:39.016Z,57.28
2023-05-19T20:48:06.721Z,57.37
2023-05-19T20:50:34.433Z,57.31
2023-05-19T20:53:02.236Z,57.23
2023-05-19T20:55:29.671Z,57.35
2023-05-19T20:57:57.180Z,57.33
2023-05-19T21:00:24.776Z,57.26
2023-05-19T21:02:52.224Z,57.26
2023-05-19T21:05:19.820Z,57.28
2023-05-19T21:07:47.298Z,57.34
2023-05-19T21:10:14.746Z,57.30
2023-05-19T21:12:42.193Z,57.33
2023-05-19T21:15:10.510Z,57.20
2023-05-19T21:17:37.930Z,57.33
2023-05-19T21:20:06.348Z,57.32
2023-05-19T21:22:35.936Z,57.26
2023-05-19T21:25:04.133Z,57.27
2023-05-19T21:27:33.176Z,57.18
2023-05-19T21:30:00.706Z,57.29
2023-05-19T21:32:29.875Z,57.31
2023-05-19T21:34:57.346Z,57.29
2023-05-19T21:37:25.011Z,57.33
2023-05-19T21:39:52.566Z,57.29
2023-05-19T21:42:20.066Z,57.36
2023-05-19T21:44:47.510Z,57.28
2023-05-19T21:47:16.422Z,57.32
2023-05-19T21:49:43.979Z,57.33
2023-05-19T21:52:11.404Z,57.28
2023-05-19T21:54:38.864Z,57.38
2023-05-19T21:57:06.981Z,57.30
2023-05-19T21:59:34.410Z,57.29
2023-05-19T22:02:01.914Z,57.30
2023-05-19T22:04:31.778Z,57.37
2023-05-19T22:06:59.256Z,57.30
2023-05-19T22:09:26.788Z,57.30
2023-05-19T22:11:54.253Z,57.31
2023-05-19T22:14:21.759Z,57.30
2023-05-19T22:16:49.270Z,57.29
2023-05-19T22:19:16.972Z,57.31
2023-05-19T22:21:44.525Z,57.32
2023-05-19T22:24:12.032Z,57.32
2023-05-19T22:26:43.021Z,57.33
2023-05-19T22:29:15.339Z,57.20
2023-05-19T22:31:42.802Z,57.34
2023-05-19T22:34:12.920Z,57.20
2023-05-19T22:36:41.826Z,57.28
2023-05-19T22:39:09.284Z,57.32
2023-05-19T22:41:36.999Z,57.34
2023-05-19T22:44:04.469Z,57.24
2023-05-19T22:46:32.082Z,57.25
2023-05-19T22:48:59.774Z,57.30
2023-05-19T22:51:27.210Z,57.28
2023-05-19T22:53:54.638Z,57.28
2023-05-19T22:56:22.794Z,57.23
2023-05-19T22:58:50.220Z,57.28
2023-05-19T23:01:17.787Z,57.21
2023-05-19T23:03:45.351Z,57.28
2023-05-19T23:06:12.804Z,57.31
2023-05-19T23:08:40.298Z,57.34
2023-05-19T23:11:08.282Z,57.31
2023-05-19T23:13:35.775Z,57.29
2023-05-19T23:16:03.266Z,57.26
2023-05-19T23:18:30.690Z,57.29
2023-05-19T23:20:58.128Z,57.31
2023-05-19T23:23:27.542Z,57.24
2023-05-19T23:25:55.198Z,57.23
2023-05-19T23:28:22.715Z,57.23
2023-05-19T23:30:53.113Z,57.22
2023-05-19T23:33:20.758Z,57.30
2023-05-19T23:35:48.324Z,57.30
2023-05-19T23:38:16.165Z,57.22
2023-05-19T23:40:44.416Z,57.25
2023-05-19T23:43:11.867Z,57.18
2023-05-19T23:45:39.305Z,57.29
2023-05-19T23:48:06.980Z,57.25
2023-05-19T23:50:34.685Z,57.21
2023-05-19T23:53:02.233Z,57.21
2023-05-19T23:55:29.774Z,57.22
2023-05-19T23:57:57.184Z,57.25
